Time;durP1;ratioP1;P1;durP2;ratioP2;P2;SDS_P1;SDS_P2;PMS_P1;PMS_P2;Temp;Humidity;BMP_temperature;BMP_pressure;BME280_temperature;BME280_humidity;BME280_pressure;Samples;Min_cycle;Max_cycle;Signal;HPM_P1;HPM_P2
2021/03/06 00:00:56;;;;;;;11.55;10.60;;;-4.40;99.90;;;;;;4978830;28;20494;-79
2021/03/06 00:03:25;;;;;;;11.30;10.48;;;-4.50;99.90;;;;;;4985801;28;20062;-80
2021/03/06 00:05:53;;;;;;;15.70;14.32;;;-4.60;99.90;;;;;;4972742;28;20047;-80
2021/03/06 00:08:23;;;;;;;15.02;13.65;;;-4.70;99.90;;;;;;4986059;28;20119;-79
2021/03/06 00:10:54;;;;;;;13.20;12.02;;;-4.70;99.90;;;;;;4985454;28;20050;-79
2021/03/06 00:13:23;;;;;;;13.10;12.00;;;-4.70;99.90;;;;;;4968969;28;20047;-79
2021/03/06 00:15:49;;;;;;;23.00;18.13;;;-4.70;99.90;;;;;;4985595;28;20166;-79
2021/03/06 00:18:16;;;;;;;17.45;15.55;;;-4.80;99.90;;;;;;4953879;28;20512;-80
2021/03/06 00:20:42;;;;;;;11.57;10.77;;;-4.70;99.90;;;;;;4974517;28;20137;-78
2021/03/06 00:23:08;;;;;;;12.82;11.00;;;-4.70;99.90;;;;;;4950231;28;20042;-79
2021/03/06 00:25:35;;;;;;;10.50;9.60;;;-4.50;99.90;;;;;;4995560;28;20093;-80
2021/03/06 00:28:01;;;;;;;11.65;10.75;;;-4.60;99.90;;;;;;4985854;28;20172;-79
2021/03/06 00:30:28;;;;;;;14.88;12.40;;;-4.70;99.90;;;;;;4970147;28;20345;-79
2021/03/06 00:32:54;;;;;;;12.75;11.75;;;-4.70;99.90;;;;;;4950359;28;20051;-79
2021/03/06 00:35:21;;;;;;;11.50;10.70;;;-4.70;99.90;;;;;;4968182;28;20212;-80
2021/03/06 00:37:47;;;;;;;11.50;10.80;;;-4.70;99.90;;;;;;4984226;28;20046;-79
2021/03/06 00:40:13;;;;;;;15.80;13.20;;;-4.90;99.90;;;;;;4985239;28;20136;-80
2021/03/06 00:42:40;;;;;;;14.43;13.13;;;-4.80;99.90;;;;;;4962311;28;20043;-78
2021/03/06 00:45:07;;;;;;;12.35;11.35;;;-4.90;99.90;;;;;;4976317;28;20061;-80
2021/03/06 00:47:34;;;;;;;11.20;10.40;;;-4.80;99.90;;;;;;4969480;28;20066;-79
2021/03/06 00:50:03;;;;;;;10.95;10.07;;;-4.70;99.90;;;;;;4969319;28;20062;-79
2021/03/06 00:52:29;;;;;;;11.10;10.15;;;-4.70;99.90;;;;;;4984223;28;20061;-79
2021/03/06 00:54:56;;;;;;;10.77;9.80;;;-4.70;99.90;;;;;;4985447;28;20051;-80
2021/03/06 00:57:22;;;;;;;10.43;9.77;;;-4.60;99.90;;;;;;4952655;28;20078;-80
2021/03/06 00:59:49;;;;;;;10.50;9.77;;;-4.80;99.90;;;;;;4954796;28;20051;-79
2021/03/06 01:02:16;;;;;;;10.98;10.20;;;-4.80;99.90;;;;;;4985496;28;20084;-79
2021/03/06 01:04:46;;;;;;;11.60;10.85;;;-4.90;99.90;;;;;;4980225;28;20054;-80
2021/03/06 01:07:12;;;;;;;11.43;10.68;;;-4.90;99.90;;;;;;4971776;28;20441;-79
2021/03/06 01:09:38;;;;;;;11.93;10.93;;;-4.90;99.90;;;;;;4973001;28;20111;-79
2021/03/06 01:12:05;;;;;;;14.13;13.02;;;-4.90;99.90;;;;;;4971973;28;20038;-79
2021/03/06 01:14:31;;;;;;;14.45;13.10;;;-5.00;99.90;;;;;;4972385;28;20050;-79
2021/03/06 01:16:58;;;;;;;14.23;13.02;;;-5.00;99.90;;;;;;4988267;28;20097;-80
2021/03/06 01:19:25;;;;;;;15.05;13.50;;;-5.00;99.90;;;;;;4960385;28;20065;-79
2021/03/06 01:21:52;;;;;;;18.90;12.98;;;-5.10;99.90;;;;;;4962963;28;20054;-79
2021/03/06 01:24:34;;;;;;;12.25;11.25;;;-5.00;99.90;;;;;;4989400;28;20053;-80
2021/03/06 01:27:00;;;;;;;13.20;12.15;;;-4.90;99.90;;;;;;4972218;28;20054;-78
2021/03/06 01:29:27;;;;;;;13.35;12.10;;;-5.10;99.90;;;;;;4955483;28;20145;-78
2021/03/06 01:31:54;;;;;;;13.35;12.25;;;-5.10;99.90;;;;;;4974307;28;20322;-78
2021/03/06 01:34:20;;;;;;;15.57;13.55;;;-5.10;99.90;;;;;;4975829;28;20061;-80
2021/03/06 01:36:47;;;;;;;13.30;12.30;;;-5.00;99.90;;;;;;4972121;28;20415;-78
2021/03/06 01:39:13;;;;;;;13.55;12.57;;;-4.80;99.90;;;;;;4988954;28;20046;-78
2021/03/06 01:41:39;;;;;;;14.93;12.95;;;-4.80;99.90;;;;;;4972010;28;20046;-80
2021/03/06 01:44:06;;;;;;;13.95;12.75;;;-4.70;99.90;;;;;;4968991;28;20058;-79
2021/03/06 01:46:32;;;;;;;13.40;12.30;;;-4.90;99.90;;;;;;4972418;28;20049;-79
2021/03/06 01:49:00;;;;;;;14.93;12.50;;;-5.10;99.90;;;;;;4980966;28;20138;-80
2021/03/06 01:51:27;;;;;;;13.13;12.13;;;-4.90;99.90;;;;;;4968277;28;20050;-80
2021/03/06 01:53:53;;;;;;;13.85;12.55;;;-5.00;99.90;;;;;;4952387;28;20499;-79
2021/03/06 01:56:20;;;;;;;13.57;12.30;;;-5.10;99.90;;;;;;4968175;28;20098;-78
2021/03/06 01:58:47;;;;;;;13.05;12.23;;;-5.20;99.90;;;;;;4964674;28;20046;-79
2021/03/06 02:01:13;;;;;;;14.68;13.27;;;-5.20;99.90;;;;;;4971732;28;20141;-79
2021/03/06 02:03:39;;;;;;;14.15;12.85;;;-5.20;99.90;;;;;;4990068;28;20042;-79
2021/03/06 02:06:05;;;;;;;13.70;12.68;;;-5.20;99.90;;;;;;5001598;28;20087;-79
2021/03/06 02:08:32;;;;;;;13.25;12.45;;;-5.20;99.90;;;;;;4984966;28;20087;-78
2021/03/06 02:10:58;;;;;;;13.63;12.60;;;-5.30;99.90;;;;;;4988661;28;20061;-79
2021/03/06 02:13:34;;;;;;;13.00;11.93;;;-5.40;99.90;;;;;;4970224;28;20058;-80
2021/03/06 02:16:35;;;;;;;12.18;11.32;;;-5.40;99.90;;;;;;4978070;28;20155;-79
2021/03/06 02:19:20;;;;;;;13.63;12.50;;;-5.30;99.90;;;;;;4994289;28;20133;-80
2021/03/06 02:22:15;;;;;;;13.10;12.23;;;-5.30;99.90;;;;;;4988904;28;20080;-79
2021/03/06 02:25:11;;;;;;;12.45;11.65;;;-5.30;99.90;;;;;;4955835;28;20157;-79
2021/03/06 02:27:49;;;;;;;13.90;12.68;;;-5.30;99.90;;;;;;4988752;28;20064;-79
2021/03/06 02:30:16;;;;;;;13.48;12.55;;;-5.40;99.90;;;;;;4955487;28;20124;-79
2021/03/06 02:32:46;;;;;;;13.88;12.90;;;-5.50;99.90;;;;;;4951897;28;20086;-79
2021/03/06 02:35:20;;;;;;;13.65;12.68;;;-5.40;99.90;;;;;;4968291;28;20061;-80
2021/03/06 02:37:49;;;;;;;13.70;12.52;;;-5.40;99.90;;;;;;4983422;28;20120;-80
2021/03/06 02:40:16;;;;;;;13.85;12.90;;;-5.30;99.90;;;;;;4986932;28;20522;-79
2021/03/06 02:42:43;;;;;;;13.95;12.73;;;-5.30;99.90;;;;;;4971960;28;20058;-80
2021/03/06 02:45:10;;;;;;;14.77;13.55;;;-5.40;99.90;;;;;;4976891;28;20042;-79
2021/03/06 02:47:37;;;;;;;14.65;13.48;;;-5.40;99.90;;;;;;4980795;28;20047;-79
2021/03/06 02:50:10;;;;;;;13.13;12.35;;;-5.50;99.90;;;;;;4952223;28;20058;-78
2021/03/06 02:52:36;;;;;;;12.35;11.60;;;-5.40;99.90;;;;;;4970371;28;20874;-79
2021/03/06 02:55:08;;;;;;;12.98;11.40;;;-5.30;99.90;;;;;;4970803;28;20115;-79
2021/03/06 02:57:56;;;;;;;12.52;11.52;;;-5.20;99.90;;;;;;4986764;28;20050;-79
2021/03/06 03:00:45;;;;;;;12.00;11.10;;;-5.20;99.90;;;;;;4970486;28;20396;-78
2021/03/06 03:03:19;;;;;;;12.70;11.70;;;-5.20;99.90;;;;;;4970198;28;20483;-79
2021/03/06 03:05:54;;;;;;;12.48;11.68;;;-5.30;99.90;;;;;;4970601;28;20133;-80
2021/03/06 03:08:27;;;;;;;12.32;11.43;;;-5.30;99.90;;;;;;4970779;28;20709;-78
2021/03/06 03:11:01;;;;;;;13.40;12.30;;;-5.30;99.90;;;;;;4953957;28;20064;-79
2021/03/06 03:13:36;;;;;;;13.48;12.63;;;-5.40;99.90;;;;;;4969661;28;20537;-79
2021/03/06 03:16:19;;;;;;;13.90;12.48;;;-5.30;99.90;;;;;;4970402;28;20057;-79
2021/03/06 03:18:53;;;;;;;13.05;11.70;;;-5.30;99.90;;;;;;4954493;28;20047;-79
2021/03/06 03:21:23;;;;;;;11.90;11.27;;;-5.40;99.90;;;;;;4990109;28;20534;-80
2021/03/06 03:23:56;;;;;;;13.70;12.27;;;-5.50;99.90;;;;;;4969257;28;20655;-79
2021/03/06 03:26:25;;;;;;;13.57;12.50;;;-5.50;99.90;;;;;;4986306;28;20054;-79
2021/03/06 03:28:52;;;;;;;14.02;13.02;;;-5.70;99.90;;;;;;4970426;28;20377;-79
2021/03/06 03:31:22;;;;;;;14.07;12.95;;;-5.60;99.90;;;;;;4968920;28;20829;-79
2021/03/06 03:33:49;;;;;;;14.88;13.48;;;-5.70;99.90;;;;;;4970188;28;20507;-79
2021/03/06 03:36:16;;;;;;;16.60;14.05;;;-5.80;99.90;;;;;;4999825;28;20055;-79
2021/03/06 03:38:45;;;;;;;14.68;13.52;;;-5.70;99.90;;;;;;4969957;28;20062;-79
2021/03/06 03:41:12;;;;;;;14.35;13.15;;;-5.70;99.90;;;;;;4969924;28;20728;-79
2021/03/06 03:43:40;;;;;;;15.20;14.07;;;-5.70;99.90;;;;;;4982767;28;20042;-79
2021/03/06 03:46:06;;;;;;;15.13;14.02;;;-5.80;99.90;;;;;;4985481;28;20066;-79
2021/03/06 03:48:35;;;;;;;15.65;14.45;;;-5.70;99.90;;;;;;4970270;28;20042;-80
2021/03/06 03:51:02;;;;;;;15.55;14.25;;;-5.60;99.90;;;;;;4970331;28;20069;-79
2021/03/06 03:53:30;;;;;;;14.20;13.10;;;-5.50;99.90;;;;;;4969487;28;20054;-79
2021/03/06 03:55:59;;;;;;;14.77;13.50;;;-5.60;99.90;;;;;;4954242;28;20125;-80
2021/03/06 03:58:26;;;;;;;15.05;14.00;;;-5.80;99.90;;;;;;4952044;28;20061;-79
2021/03/06 04:01:00;;;;;;;15.50;13.88;;;-5.90;99.90;;;;;;4983116;28;20059;-79
2021/03/06 04:03:28;;;;;;;15.77;14.33;;;-5.80;99.90;;;;;;4986545;28;20050;-79
2021/03/06 04:06:00;;;;;;;21.33;15.05;;;-5.60;99.90;;;;;;4970582;28;20454;-79
2021/03/06 04:08:27;;;;;;;16.58;14.30;;;-5.40;99.90;;;;;;4970442;28;20096;-80
2021/03/06 04:10:54;;;;;;;14.13;13.13;;;-5.60;99.90;;;;;;4971067;28;20054;-80
2021/03/06 04:13:20;;;;;;;16.35;14.93;;;-5.60;99.90;;;;;;4982575;28;20122;-80
2021/03/06 04:15:46;;;;;;;14.95;13.73;;;-5.60;99.90;;;;;;4966937;28;20154;-80
2021/03/06 04:18:13;;;;;;;16.10;14.45;;;-5.60;99.90;;;;;;4978146;28;20058;-80
2021/03/06 04:20:40;;;;;;;15.27;14.00;;;-5.60;99.90;;;;;;4986817;28;20137;-80
2021/03/06 04:23:06;;;;;;;16.00;14.73;;;-5.70;99.90;;;;;;4970984;28;20059;-80
2021/03/06 04:25:32;;;;;;;16.27;14.77;;;-5.70;99.90;;;;;;4969916;28;20042;-79
2021/03/06 04:28:00;;;;;;;15.27;13.77;;;-5.70;99.90;;;;;;4970385;28;20507;-80
2021/03/06 04:30:26;;;;;;;15.90;14.60;;;-5.60;99.90;;;;;;4956339;28;20064;-79
2021/03/06 04:32:53;;;;;;;15.02;13.93;;;-5.60;99.90;;;;;;4973358;28;20042;-79
2021/03/06 04:35:20;;;;;;;15.30;14.18;;;-5.60;99.90;;;;;;4965414;28;20108;-79
2021/03/06 04:37:46;;;;;;;15.25;14.13;;;-5.80;99.90;;;;;;4972768;28;20038;-80
2021/03/06 04:40:14;;;;;;;16.50;15.00;;;-5.80;99.90;;;;;;4954181;28;20050;-79
2021/03/06 04:42:41;;;;;;;15.25;13.95;;;-5.80;99.90;;;;;;4981726;28;20446;-80
2021/03/06 04:45:09;;;;;;;16.42;14.27;;;-5.80;99.90;;;;;;4973549;28;20078;-80
2021/03/06 04:47:39;;;;;;;14.93;13.50;;;-5.90;99.90;;;;;;4956956;28;20069;-79
2021/03/06 04:50:06;;;;;;;14.10;12.85;;;-5.90;99.90;;;;;;4989557;28;20682;-80
2021/03/06 04:52:33;;;;;;;16.88;14.70;;;-6.00;99.90;;;;;;4972913;28;20202;-80
2021/03/06 04:54:59;;;;;;;18.13;16.13;;;-6.00;99.90;;;;;;4988564;28;20054;-79
2021/03/06 04:57:26;;;;;;;16.50;15.00;;;-6.00;99.90;;;;;;4973538;28;20038;-80
2021/03/06 04:59:54;;;;;;;17.55;15.15;;;-6.00;99.90;;;;;;4973915;28;20042;-81
2021/03/06 05:02:20;;;;;;;16.60;15.05;;;-6.00;99.90;;;;;;5005072;28;20077;-78
2021/03/06 05:04:47;;;;;;;16.20;14.70;;;-5.80;99.90;;;;;;4954307;28;20050;-79
2021/03/06 05:07:13;;;;;;;18.63;16.80;;;-5.70;99.90;;;;;;4972741;28;20060;-80
2021/03/06 05:09:39;;;;;;;17.33;15.57;;;-5.70;99.90;;;;;;4973655;28;20047;-80
2021/03/06 05:12:06;;;;;;;17.73;16.10;;;-5.70;99.90;;;;;;4988346;28;20522;-79
2021/03/06 05:14:32;;;;;;;18.35;16.00;;;-5.70;99.90;;;;;;4973603;28;20073;-79
2021/03/06 05:16:58;;;;;;;18.08;16.38;;;-5.50;99.90;;;;;;4970559;28;20050;-80
2021/03/06 05:19:25;;;;;;;17.83;16.23;;;-5.50;99.90;;;;;;4992234;28;20502;-80
2021/03/06 05:21:51;;;;;;;17.88;16.25;;;-5.60;99.90;;;;;;4972245;28;20697;-80
2021/03/06 05:24:18;;;;;;;18.13;16.52;;;-5.90;99.90;;;;;;4972151;28;20491;-80
2021/03/06 05:26:44;;;;;;;19.45;17.55;;;-5.80;99.90;;;;;;4955250;28;20050;-79
2021/03/06 05:29:10;;;;;;;21.70;17.90;;;-5.80;99.90;;;;;;4987579;28;20054;-80
2021/03/06 05:31:36;;;;;;;21.17;16.77;;;-5.70;99.90;;;;;;4954202;28;20054;-81
2021/03/06 05:34:03;;;;;;;19.65;17.73;;;-5.70;99.90;;;;;;4971532;28;20683;-80
2021/03/06 05:36:29;;;;;;;18.88;17.13;;;-5.90;99.90;;;;;;4952515;28;20054;-79
2021/03/06 05:38:55;;;;;;;18.85;17.15;;;-5.90;99.90;;;;;;4968561;28;20069;-80
2021/03/06 05:41:22;;;;;;;19.33;17.45;;;-6.00;99.90;;;;;;4983182;28;20076;-79
2021/03/06 05:43:49;;;;;;;18.38;16.77;;;-6.10;99.90;;;;;;4971817;28;20046;-79
2021/03/06 05:46:16;;;;;;;18.45;16.90;;;-6.10;99.90;;;;;;4971975;28;20145;-79
2021/03/06 05:48:42;;;;;;;20.05;18.20;;;-6.10;99.90;;;;;;4976040;28;20253;-80
2021/03/06 05:51:10;;;;;;;18.90;17.17;;;-5.80;99.90;;;;;;4956442;28;20448;-80
2021/03/06 05:53:39;;;;;;;20.30;18.15;;;-5.90;99.90;;;;;;4984505;28;20084;-80
2021/03/06 05:56:08;;;;;;;18.83;17.23;;;-6.00;99.90;;;;;;4952124;28;20050;-80
2021/03/06 05:58:35;;;;;;;20.58;18.52;;;-6.10;99.90;;;;;;4981198;28;20043;-80
2021/03/06 06:01:03;;;;;;;18.42;16.40;;;-6.20;99.90;;;;;;4987314;28;20050;-80
2021/03/06 06:03:30;;;;;;;18.48;16.75;;;-6.20;99.90;;;;;;4955101;28;20137;-79
2021/03/06 06:05:57;;;;;;;19.23;17.20;;;-6.10;99.90;;;;;;4955681;28;20046;-80
2021/03/06 06:08:25;;;;;;;20.63;18.42;;;-6.00;99.90;;;;;;4971854;28;20060;-80
2021/03/06 06:10:51;;;;;;;19.83;18.10;;;-5.80;99.90;;;;;;4986192;28;20573;-80
2021/03/06 06:13:18;;;;;;;20.55;18.58;;;-5.70;99.90;;;;;;4971126;28;20138;-79
2021/03/06 06:15:45;;;;;;;22.40;20.15;;;-5.60;99.90;;;;;;4954724;28;20048;-81
2021/03/06 06:18:12;;;;;;;19.10;17.55;;;-5.60;99.90;;;;;;4975470;28;20046;-81
2021/03/06 06:20:39;;;;;;;21.02;18.95;;;-5.70;99.90;;;;;;4972922;28;20519;-80
2021/03/06 06:23:17;;;;;;;20.73;18.92;;;-5.90;99.90;;;;;;4972082;28;20561;-81
2021/03/06 06:25:45;;;;;;;26.73;19.77;;;-5.90;99.90;;;;;;4987098;28;20054;-81
2021/03/06 06:28:18;;;;;;;26.00;19.58;;;-5.80;99.90;;;;;;4983685;28;20116;-80
2021/03/06 06:31:10;;;;;;;21.20;19.27;;;-5.80;99.90;;;;;;4970894;28;20074;-79
2021/03/06 06:33:37;;;;;;;20.67;18.90;;;-5.80;99.90;;;;;;4970382;28;20077;-81
2021/03/06 06:36:04;;;;;;;22.67;20.33;;;-5.90;99.90;;;;;;4970744;28;20160;-81
2021/03/06 06:38:41;;;;;;;21.65;19.48;;;-5.80;99.90;;;;;;4981699;28;20503;-81
2021/03/06 06:41:08;;;;;;;21.20;19.30;;;-5.80;99.90;;;;;;4970896;28;20116;-81
2021/03/06 06:43:34;;;;;;;21.75;19.80;;;-5.80;99.90;;;;;;4987297;28;20723;-81
2021/03/06 06:46:00;;;;;;;21.13;19.23;;;-5.90;99.90;;;;;;4967520;28;20439;-81
2021/03/06 06:48:27;;;;;;;21.17;19.40;;;-5.90;99.90;;;;;;4983706;28;20073;-81
2021/03/06 06:51:09;;;;;;;22.08;19.80;;;-6.00;99.90;;;;;;4970131;28;20042;-81
2021/03/06 06:53:35;;;;;;;25.50;22.75;;;-5.90;99.90;;;;;;4987125;28;20069;-80
2021/03/06 06:56:02;;;;;;;24.58;22.05;;;-5.80;99.90;;;;;;4970489;28;20054;-80
2021/03/06 06:58:42;;;;;;;28.63;24.23;;;-5.70;99.90;;;;;;4976387;28;20045;-80
2021/03/06 07:01:31;;;;;;;26.65;23.90;;;-5.60;99.90;;;;;;4987156;28;20050;-80
2021/03/06 07:04:09;;;;;;;26.67;22.90;;;-5.40;99.90;;;;;;4978174;28;20410;-79
2021/03/06 07:06:40;;;;;;;23.70;21.35;;;-5.20;99.90;;;;;;4969992;28;20515;-80
2021/03/06 07:09:12;;;;;;;29.65;25.33;;;-5.20;99.90;;;;;;4954254;28;20145;-80
2021/03/06 07:11:40;;;;;;;36.25;27.00;;;-5.20;99.90;;;;;;4953911;28;20050;-80
2021/03/06 07:14:07;;;;;;;32.38;25.88;;;-5.20;99.90;;;;;;4970660;28;20631;-80
2021/03/06 07:16:59;;;;;;;29.05;25.52;;;-5.10;99.90;;;;;;4953183;28;20042;-80
2021/03/06 07:19:30;;;;;;;24.50;22.02;;;-5.00;99.90;;;;;;4977902;28;20042;-80
2021/03/06 07:21:58;;;;;;;23.08;20.58;;;-4.70;99.90;;;;;;4969428;28;20046;-78
2021/03/06 07:24:28;;;;;;;23.73;20.25;;;-4.50;99.90;;;;;;4954544;28;20046;-79
2021/03/06 07:26:55;;;;;;;22.25;20.05;;;-4.40;99.90;;;;;;4954023;28;20065;-80
2021/03/06 07:29:26;;;;;;;22.30;20.10;;;-4.10;99.90;;;;;;4970808;28;20203;-80
2021/03/06 07:31:54;;;;;;;22.80;20.02;;;-3.80;99.90;;;;;;4986350;28;20146;-81
2021/03/06 07:34:29;;;;;;;21.20;19.30;;;-3.60;99.90;;;;;;4970280;28;20058;-80
2021/03/06 07:37:04;;;;;;;20.45;18.63;;;-3.60;99.90;;;;;;4969093;28;20069;-79
2021/03/06 07:39:39;;;;;;;21.90;19.27;;;-3.60;99.90;;;;;;4969960;28;20042;-79
2021/03/06 07:42:12;;;;;;;26.50;23.70;;;-3.50;99.90;;;;;;4976896;28;20769;-80
2021/03/06 07:44:42;;;;;;;27.40;21.42;;;-3.30;99.90;;;;;;4969836;28;20077;-80
2021/03/06 07:47:12;;;;;;;29.33;24.70;;;-3.10;99.90;;;;;;4969197;28;20618;-81
2021/03/06 07:49:40;;;;;;;30.85;24.92;;;-2.90;99.90;;;;;;4969744;28;20138;-80
2021/03/06 07:52:10;;;;;;;28.65;25.58;;;-2.70;99.90;;;;;;4986297;28;20423;-79
2021/03/06 07:54:38;;;;;;;26.98;24.02;;;-2.50;99.90;;;;;;4969828;28;20065;-80
2021/03/06 07:57:05;;;;;;;27.98;25.05;;;-2.20;99.90;;;;;;4965653;28;20043;-79
2021/03/06 07:59:51;;;;;;;28.23;24.70;;;-1.90;99.90;;;;;;4983434;28;20050;-79
2021/03/06 08:02:30;;;;;;;26.52;24.15;;;-1.80;99.90;;;;;;4971627;28;20059;-78
2021/03/06 08:04:57;;;;;;;27.80;25.15;;;-1.70;99.90;;;;;;4987082;28;20058;-80
2021/03/06 08:07:38;;;;;;;57.45;34.15;;;-1.60;99.90;;;;;;4990302;28;20149;-79
2021/03/06 08:10:05;;;;;;;35.17;29.58;;;-1.40;99.90;;;;;;4970881;28;20072;-79
2021/03/06 08:12:35;;;;;;;33.00;27.10;;;-1.30;99.90;;;;;;4963666;28;20133;-79
2021/03/06 08:15:29;;;;;;;28.17;25.23;;;-1.20;99.90;;;;;;4974516;28;20108;-79
2021/03/06 08:18:00;;;;;;;24.17;21.95;;;-1.00;99.90;;;;;;4974166;28;20053;-79
2021/03/06 08:20:30;;;;;;;23.30;21.13;;;-0.80;99.90;;;;;;5006533;28;20129;-78
2021/03/06 08:23:22;;;;;;;26.17;23.45;;;-0.40;99.90;;;;;;4961646;28;20054;-80
2021/03/06 08:26:18;;;;;;;26.88;24.25;;;0.00;99.90;;;;;;4973032;28;20048;-80
2021/03/06 08:28:44;;;;;;;25.45;22.92;;;0.40;99.90;;;;;;4969250;28;20052;-79
2021/03/06 08:31:37;;;;;;;23.25;20.95;;;0.80;99.90;;;;;;4973024;28;20628;-79
2021/03/06 08:34:27;;;;;;;32.67;24.38;;;1.10;99.90;;;;;;4991314;28;20049;-79
2021/03/06 08:37:15;;;;;;;24.60;22.30;;;1.60;99.90;;;;;;4989761;28;20053;-79
2021/03/06 08:39:42;;;;;;;26.73;23.92;;;1.90;99.90;;;;;;4972724;28;20046;-79
2021/03/06 08:42:09;;;;;;;27.30;22.33;;;2.10;99.90;;;;;;4979105;28;20058;-79
2021/03/06 08:44:36;;;;;;;23.30;20.38;;;2.20;99.90;;;;;;4994724;28;20046;-80
2021/03/06 08:47:03;;;;;;;19.65;18.17;;;2.40;99.90;;;;;;4953110;28;20073;-80
2021/03/06 08:49:31;;;;;;;21.85;19.80;;;2.70;99.90;;;;;;4970235;28;20207;-79
2021/03/06 08:51:58;;;;;;;21.85;19.63;;;2.80;99.90;;;;;;4953980;28;20579;-79
2021/03/06 08:54:25;;;;;;;21.15;19.05;;;3.00;99.90;;;;;;4979230;28;20050;-79
2021/03/06 08:56:52;;;;;;;19.73;17.83;;;3.20;99.90;;;;;;4972577;28;20422;-79
2021/03/06 08:59:36;;;;;;;19.33;17.92;;;3.30;99.90;;;;;;4989260;28;20304;-79
2021/03/06 09:02:13;;;;;;;22.52;20.13;;;3.40;99.90;;;;;;4988768;28;20051;-80
2021/03/06 09:04:40;;;;;;;19.30;17.58;;;3.70;99.90;;;;;;5004913;28;20046;-78
2021/03/06 09:07:24;;;;;;;18.20;16.63;;;3.90;99.90;;;;;;4972215;28;20563;-79
2021/03/06 09:09:50;;;;;;;21.33;19.33;;;4.00;99.90;;;;;;4988727;28;20046;-79
2021/03/06 09:12:16;;;;;;;20.10;18.25;;;4.00;99.90;;;;;;4987727;28;20069;-79
2021/03/06 09:14:43;;;;;;;28.33;22.77;;;4.10;99.90;;;;;;4985708;28;20446;-80
2021/03/06 09:17:10;;;;;;;36.83;25.38;;;4.20;99.90;;;;;;4971350;28;20137;-80
2021/03/06 09:19:37;;;;;;;30.38;23.63;;;4.00;99.90;;;;;;4972547;28;20054;-79
2021/03/06 09:22:06;;;;;;;32.30;24.55;;;4.00;99.90;;;;;;4956869;28;20051;-79
2021/03/06 09:24:47;;;;;;;24.80;21.70;;;4.00;99.90;;;;;;4972428;28;20177;-78
2021/03/06 09:27:14;;;;;;;24.02;19.30;;;4.40;99.90;;;;;;4954349;28;20061;-78
2021/03/06 09:29:42;;;;;;;19.38;17.42;;;4.50;99.90;;;;;;4970172;28;20048;-78
2021/03/06 09:32:09;;;;;;;17.63;15.85;;;4.80;99.90;;;;;;4968896;28;20054;-78
2021/03/06 09:34:37;;;;;;;18.20;16.45;;;4.90;99.90;;;;;;5010556;28;20050;-78
2021/03/06 09:37:17;;;;;;;15.27;14.07;;;4.90;99.90;;;;;;4987649;28;20046;-78
2021/03/06 09:39:44;;;;;;;14.85;13.50;;;4.90;99.90;;;;;;4987266;28;20053;-78
2021/03/06 09:42:16;;;;;;;15.27;14.18;;;5.10;99.90;;;;;;4971253;28;20050;-78
2021/03/06 09:44:49;;;;;;;15.90;14.50;;;5.30;99.90;;;;;;4968116;28;20138;-78
2021/03/06 09:47:23;;;;;;;15.10;14.00;;;5.30;99.90;;;;;;4988736;28;20060;-80
2021/03/06 09:49:49;;;;;;;15.13;14.20;;;5.30;99.90;;;;;;4989269;28;20318;-79
2021/03/06 09:52:16;;;;;;;14.80;13.65;;;5.30;99.90;;;;;;4988928;28;20054;-80
2021/03/06 09:54:42;;;;;;;14.13;13.23;;;5.40;99.90;;;;;;4972951;28;20069;-79
2021/03/06 09:57:09;;;;;;;14.82;12.57;;;5.40;99.90;;;;;;4989068;28;20069;-79
2021/03/06 09:59:37;;;;;;;13.43;12.43;;;5.60;99.90;;;;;;4972343;28;20414;-80
2021/03/06 10:02:08;;;;;;;13.98;12.95;;;5.60;99.90;;;;;;4995990;28;20048;-80
2021/03/06 10:04:35;;;;;;;13.52;12.65;;;5.30;99.90;;;;;;4970736;28;20058;-78
2021/03/06 10:07:08;;;;;;;14.75;13.73;;;5.20;99.90;;;;;;4988272;28;20061;-79
2021/03/06 10:09:35;;;;;;;15.52;14.27;;;5.20;99.90;;;;;;4988605;28;20534;-78
2021/03/06 10:12:07;;;;;;;15.65;14.40;;;5.50;99.90;;;;;;4972241;28;20050;-79
2021/03/06 10:14:33;;;;;;;14.20;13.07;;;5.70;99.90;;;;;;4988089;28;20064;-78
2021/03/06 10:17:06;;;;;;;13.48;12.40;;;5.70;99.90;;;;;;4986936;28;20182;-79
2021/03/06 10:19:54;;;;;;;12.55;11.88;;;5.80;99.90;;;;;;4995707;28;20041;-79
2021/03/06 10:22:21;;;;;;;14.43;13.20;;;6.00;99.90;;;;;;5007399;28;20049;-78
2021/03/06 10:24:58;;;;;;;12.20;11.48;;;5.70;99.90;;;;;;4992025;28;20515;-79
2021/03/06 10:27:36;;;;;;;13.32;12.13;;;5.40;99.90;;;;;;4975391;28;20046;-79
2021/03/06 10:30:14;;;;;;;12.95;11.95;;;5.40;99.90;;;;;;4972125;28;20050;-79
2021/03/06 10:32:46;;;;;;;13.55;12.20;;;5.40;99.90;;;;;;4970234;28;20061;-79
2021/03/06 10:35:38;;;;;;;13.20;12.60;;;5.60;99.90;;;;;;4976388;28;20090;-78
2021/03/06 10:38:27;;;;;;;12.60;11.90;;;5.80;99.90;;;;;;4967376;28;20067;-79
2021/03/06 10:41:01;;;;;;;13.43;12.32;;;5.70;99.90;;;;;;4978882;28;20698;-79
2021/03/06 10:43:35;;;;;;;13.00;12.40;;;5.60;99.90;;;;;;4969009;28;20078;-79
2021/03/06 10:46:24;;;;;;;12.82;12.13;;;5.70;99.90;;;;;;4987587;28;20050;-80
2021/03/06 10:48:59;;;;;;;14.55;13.60;;;6.00;99.90;;;;;;5084586;27;20471;-80
2021/03/06 10:51:51;;;;;;;13.70;13.00;;;6.20;99.90;;;;;;5080349;28;20131;-81
2021/03/06 10:54:20;;;;;;;14.30;13.30;;;6.10;99.90;;;;;;5069355;28;20125;-80
2021/03/06 10:56:46;;;;;;;14.30;13.60;;;5.90;99.90;;;;;;5072878;28;20083;-80
2021/03/06 10:59:13;;;;;;;16.42;13.13;;;5.90;99.90;;;;;;5031227;28;20533;-79
2021/03/06 11:01:47;;;;;;;13.23;12.63;;;5.80;99.90;;;;;;5047196;28;20041;-80
2021/03/06 11:04:27;;;;;;;12.32;11.55;;;5.60;99.90;;;;;;5045779;28;20140;-82
2021/03/06 11:06:58;;;;;;;11.32;10.48;;;5.80;99.90;;;;;;5077252;28;20123;-81
2021/03/06 11:09:26;;;;;;;13.10;12.27;;;6.00;99.90;;;;;;5049726;28;20139;-79
2021/03/06 11:11:53;;;;;;;12.80;12.00;;;6.20;99.90;;;;;;5030760;28;20126;-79
2021/03/06 11:14:24;;;;;;;12.90;12.10;;;6.50;99.90;;;;;;5030258;28;20132;-79
2021/03/06 11:16:50;;;;;;;12.18;11.30;;;6.60;99.90;;;;;;5046366;28;20045;-79
2021/03/06 11:19:17;;;;;;;12.60;11.93;;;6.70;99.90;;;;;;5042651;28;20119;-80
2021/03/06 11:21:43;;;;;;;11.65;10.73;;;6.50;99.90;;;;;;5060664;28;20124;-79
2021/03/06 11:24:10;;;;;;;12.07;11.38;;;6.60;99.90;;;;;;5048241;28;20124;-79
2021/03/06 11:26:37;;;;;;;12.52;11.82;;;6.60;99.90;;;;;;5045518;28;20140;-80
2021/03/06 11:29:04;;;;;;;11.85;11.25;;;6.50;99.90;;;;;;5079628;28;20076;-81
2021/03/06 11:31:49;;;;;;;12.48;11.38;;;6.40;99.90;;;;;;5012486;28;20049;-78
2021/03/06 11:34:16;;;;;;;12.85;12.25;;;6.60;99.90;;;;;;5053638;28;20033;-80
2021/03/06 11:36:42;;;;;;;12.07;11.48;;;6.60;99.90;;;;;;5062765;28;20118;-79
2021/03/06 11:39:08;;;;;;;12.40;11.68;;;6.60;99.90;;;;;;5031942;28;20047;-80
2021/03/06 11:41:35;;;;;;;12.85;12.02;;;6.70;99.90;;;;;;5025761;28;20120;-80
2021/03/06 11:44:02;;;;;;;13.98;13.07;;;6.70;99.90;;;;;;5068635;28;20045;-79
2021/03/06 11:46:29;;;;;;;13.02;11.88;;;6.70;99.90;;;;;;5029269;28;20078;-79
2021/03/06 11:48:57;;;;;;;11.60;11.00;;;6.50;99.90;;;;;;5046422;28;20041;-81
2021/03/06 11:51:24;;;;;;;11.88;11.38;;;6.60;99.90;;;;;;5080298;28;20069;-81
2021/03/06 11:53:50;;;;;;;12.20;11.50;;;6.70;99.90;;;;;;5030010;28;20493;-80
2021/03/06 11:56:17;;;;;;;11.85;11.02;;;6.80;99.90;;;;;;5025317;28;20128;-79
2021/03/06 11:58:43;;;;;;;12.25;11.18;;;7.20;99.90;;;;;;5059399;28;20495;-80
2021/03/06 12:01:09;;;;;;;11.25;10.15;;;7.50;99.90;;;;;;5050098;28;20048;-79
2021/03/06 12:03:36;;;;;;;11.30;10.60;;;7.40;99.90;;;;;;5003847;28;20054;-80
2021/03/06 12:06:02;;;;;;;11.80;10.63;;;7.50;99.90;;;;;;5011744;28;20060;-80
2021/03/06 12:08:29;;;;;;;10.07;9.48;;;7.60;99.90;;;;;;5050599;28;20079;-79
2021/03/06 12:10:55;;;;;;;11.63;10.82;;;7.60;99.90;;;;;;5064538;28;20037;-81
2021/03/06 12:13:21;;;;;;;12.77;11.45;;;7.70;99.90;;;;;;5013516;28;20049;-81
2021/03/06 12:15:50;;;;;;;12.32;11.40;;;7.50;99.90;;;;;;5045503;28;20045;-80
2021/03/06 12:18:16;;;;;;;12.90;11.80;;;7.50;99.90;;;;;;5030216;28;20056;-80
2021/03/06 12:20:44;;;;;;;11.63;11.00;;;7.40;99.90;;;;;;5032851;28;20533;-80
2021/03/06 12:23:11;;;;;;;12.05;11.35;;;7.50;99.90;;;;;;5016330;28;20079;-82
2021/03/06 12:25:37;;;;;;;12.30;11.27;;;7.10;99.90;;;;;;5016442;28;20076;-80
2021/03/06 12:28:04;;;;;;;12.00;11.43;;;6.40;99.90;;;;;;5017001;28;20558;-80
2021/03/06 12:30:30;;;;;;;12.88;11.75;;;6.50;99.90;;;;;;5031952;28;20140;-80
2021/03/06 12:32:57;;;;;;;12.30;11.60;;;6.60;99.90;;;;;;5018361;28;20219;-80
2021/03/06 12:35:23;;;;;;;12.45;11.85;;;6.20;99.90;;;;;;5016246;28;20432;-81
2021/03/06 12:37:50;;;;;;;12.70;12.10;;;6.20;99.90;;;;;;5021086;28;20164;-79
2021/03/06 12:40:16;;;;;;;13.00;12.35;;;6.70;99.90;;;;;;5064094;28;20053;-82
2021/03/06 12:42:43;;;;;;;15.07;13.40;;;6.80;99.90;;;;;;5038431;28;20148;-80
2021/03/06 12:45:11;;;;;;;12.57;11.65;;;6.80;99.90;;;;;;5059309;28;20051;-80